Time;durP1;ratioP1;P1;durP2;ratioP2;P2;SDS_P1;SDS_P2;PMS_P1;PMS_P2;Temp;Humidity;BMP_temperature;BMP_pressure;BME280_temperature;BME280_humidity;BME280_pressure;Samples;Min_cycle;Max_cycle;Signal;HPM_P1;HPM_P2
2021/12/02 00:00:33;;;;;;;24.37;13.40;;;;;;;2.34;78.23;99507.69;1892822;76;22127;-67
2021/12/02 00:03:24;;;;;;;26.30;14.25;;;;;;;2.35;78.27;99512.80;1874016;76;22623;-70
2021/12/02 00:05:56;;;;;;;26.40;14.93;;;;;;;2.35;78.12;99516.73;1892828;76;22128;-69
2021/12/02 00:08:28;;;;;;;28.20;15.90;;;;;;;2.35;78.08;99523.77;1874046;76;22129;-71
2021/12/02 00:11:00;;;;;;;25.85;15.05;;;;;;;2.34;78.07;99528.66;1874040;76;22146;-71
2021/12/02 00:13:44;;;;;;;24.57;13.75;;;;;;;2.32;78.13;99530.09;1892821;76;22132;-68
2021/12/02 00:22:10;;;;;;;24.47;14.07;;;;;;;2.35;78.19;99531.15;1892827;76;22116;-68
2021/12/02 00:25:03;;;;;;;28.83;15.23;;;;;;;2.32;78.15;99536.64;1871286;76;22149;-68
2021/12/02 00:27:35;;;;;;;26.12;14.90;;;;;;;2.33;78.17;99540.09;1874045;76;22579;-70
2021/12/02 00:30:25;;;;;;;29.05;15.55;;;;;;;2.32;78.18;99548.44;1892922;76;22145;-70
2021/12/02 00:32:57;;;;;;;30.75;16.90;;;;;;;2.30;78.13;99548.53;1874023;76;22121;-68
2021/12/02 00:35:29;;;;;;;25.40;14.85;;;;;;;2.29;78.11;99549.96;1873945;76;22129;-71
2021/12/02 00:38:01;;;;;;;24.18;13.43;;;;;;;2.28;77.99;99551.75;1874034;76;22578;-72
2021/12/02 00:40:34;;;;;;;26.48;14.55;;;;;;;2.29;77.96;99555.20;1871318;76;22550;-68
2021/12/02 00:43:06;;;;;;;24.92;14.33;;;;;;;2.29;77.89;99557.83;1874044;76;22124;-68
2021/12/02 00:45:40;;;;;;;26.97;15.20;;;;;;;2.27;78.00;99567.13;1892824;76;22136;-70
2021/12/02 00:48:14;;;;;;;26.07;14.95;;;;;;;2.26;78.04;99574.63;1890468;76;22124;-68
2021/12/02 00:50:48;;;;;;;30.88;16.02;;;;;;;2.24;78.10;99576.98;1892824;76;22152;-71
2021/12/02 00:53:43;;;;;;;29.57;14.78;;;;;;;2.18;77.91;99580.07;1892803;76;22120;-68
2021/12/02 00:56:16;;;;;;;25.65;14.55;;;;;;;2.11;78.03;99584.08;1874056;76;20201;-68
2021/12/02 00:58:49;;;;;;;26.57;15.90;;;;;;;2.10;78.17;99588.96;1874024;76;22575;-70
2021/12/02 01:01:24;;;;;;;27.20;14.87;;;;;;;2.10;78.32;99604.68;1874036;76;22149;-72
2021/12/02 01:03:58;;;;;;;25.82;14.20;;;;;;;2.10;78.38;99608.13;1874029;76;22120;-71
2021/12/02 01:06:49;;;;;;;23.98;12.95;;;;;;;2.11;78.17;99619.45;1874017;76;22585;-70
2021/12/02 01:09:21;;;;;;;20.95;10.28;;;;;;;2.07;77.50;99617.99;1892833;76;22557;-69
2021/12/02 01:12:12;;;;;;;17.32;7.72;;;;;;;1.96;76.35;99623.54;1892695;76;22149;-67
2021/12/02 01:14:45;;;;;;;18.90;8.43;;;;;;;1.85;76.06;99630.03;1874021;76;22137;-68
2021/12/02 01:17:36;;;;;;;15.40;7.65;;;;;;;1.75;75.64;99640.81;1873989;76;22128;-70
2021/12/02 01:20:10;;;;;;;14.78;6.65;;;;;;;1.64;75.35;99641.55;1874138;76;22141;-70
2021/12/02 01:22:41;;;;;;;15.10;6.85;;;;;;;1.56;75.19;99651.74;1874031;76;22153;-70
2021/12/02 01:25:32;;;;;;;13.30;6.05;;;;;;;1.48;75.45;99650.95;1873996;76;22129;-70
2021/12/02 01:28:04;;;;;;;12.30;5.75;;;;;;;1.41;75.45;99649.72;1892827;76;22132;-71
2021/12/02 01:30:55;;;;;;;14.05;6.65;;;;;;;1.37;75.21;99656.11;1873976;76;22165;-71
2021/12/02 01:33:27;;;;;;;11.65;5.97;;;;;;;1.28;74.98;99667.20;1874025;76;22142;-68
2021/12/02 01:36:01;;;;;;;14.43;5.80;;;;;;;1.21;74.84;99675.93;1892820;76;22574;-68
2021/12/02 01:38:52;;;;;;;10.45;5.10;;;;;;;1.12;74.73;99683.56;1873971;76;22148;-70
2021/12/02 01:41:24;;;;;;;13.00;5.55;;;;;;;1.03;74.54;99687.63;1892832;76;22569;-71
2021/12/02 01:43:56;;;;;;;13.65;6.60;;;;;;;0.96;74.80;99693.77;1874018;76;22140;-71
2021/12/02 01:46:28;;;;;;;10.53;5.15;;;;;;;0.94;73.96;99707.86;1892719;76;22127;-71
2021/12/02 01:51:44;;;;;;;10.88;4.78;;;;;;;0.71;71.49;99713.34;1874028;76;22124;-69
2021/12/02 01:54:35;;;;;;;11.33;4.55;;;;;;;0.59;71.85;99720.19;1873905;76;22142;-70
2021/12/02 01:57:07;;;;;;;9.18;4.45;;;;;;;0.51;71.96;99723.28;1874027;76;22136;-71
2021/12/02 01:59:39;;;;;;;8.83;3.92;;;;;;;0.46;71.74;99725.83;1873926;76;22170;-68
2021/12/02 02:02:11;;;;;;;8.13;4.30;;;;;;;0.38;71.41;99728.12;1874039;76;22124;-69
2021/12/02 02:04:43;;;;;;;9.88;3.98;;;;;;;0.32;71.40;99728.02;1874040;76;22162;-70
2021/12/02 02:07:14;;;;;;;7.10;3.72;;;;;;;0.27;71.20;99735.78;1874021;76;22145;-68
2021/12/02 02:10:06;;;;;;;5.83;3.15;;;;;;;0.21;70.79;99751.38;1892805;76;22136;-68
2021/12/02 02:12:38;;;;;;;8.55;4.20;;;;;;;0.12;70.62;99759.79;1874035;76;22120;-67
2021/12/02 02:15:29;;;;;;;9.65;3.62;;;;;;;0.04;70.58;99757.64;1873982;76;22601;-70
2021/12/02 02:18:15;;;;;;;7.75;3.55;;;;;;;-0.03;70.68;99761.12;1892829;76;22145;-67
2021/12/02 02:21:03;;;;;;;7.37;3.75;;;;;;;-0.08;70.78;99767.56;1874017;76;22121;-69
2021/12/02 02:23:39;;;;;;;9.48;3.52;;;;;;;-0.13;70.78;99773.06;1874037;76;22117;-66
2021/12/02 02:26:35;;;;;;;4.55;3.08;;;;;;;-0.20;70.72;99770.44;1873996;76;22129;-67
2021/12/02 02:29:10;;;;;;;9.40;3.75;;;;;;;-0.24;70.84;99776.77;1874147;76;22136;-71
2021/12/02 02:32:00;;;;;;;5.67;3.00;;;;;;;-0.26;71.12;99784.71;1874028;76;22129;-70
2021/12/02 02:34:32;;;;;;;6.42;3.65;;;;;;;-0.28;71.23;99793.58;1874034;76;22128;-70
2021/12/02 02:37:06;;;;;;;10.40;3.22;;;;;;;-0.33;71.20;99791.25;1892723;76;22141;-68
2021/12/02 02:39:57;;;;;;;5.45;3.30;;;;;;;-0.37;71.27;99793.66;1873976;76;22553;-70
2021/12/02 02:42:29;;;;;;;7.90;3.20;;;;;;;-0.41;71.40;99793.94;1874142;76;22133;-69
2021/12/02 02:45:20;;;;;;;6.75;3.60;;;;;;;-0.42;71.50;99791.80;1874107;76;22129;-70
2021/12/02 02:47:52;;;;;;;6.60;3.30;;;;;;;-0.43;71.45;99801.00;1871323;76;22128;-69
2021/12/02 02:50:43;;;;;;;7.85;3.45;;;;;;;-0.46;71.53;99795.98;1874097;76;22136;-68
2021/12/02 02:53:21;;;;;;;7.70;3.20;;;;;;;-0.45;71.64;99802.41;1892831;76;22124;-70
2021/12/02 02:56:16;;;;;;;7.75;3.80;;;;;;;-0.44;71.61;99803.24;1892690;76;20203;-70
2021/12/02 02:59:10;;;;;;;9.95;3.80;;;;;;;-0.45;71.41;99808.92;1892694;76;22128;-68
2021/12/02 03:07:17;;;;;;;6.60;3.35;;;;;;;-0.48;71.05;99816.09;1874115;76;22558;-70
2021/12/02 03:13:18;;;;;;;7.72;3.42;;;;;;;-0.51;70.82;99823.66;1874039;76;22132;-69
2021/12/02 03:18:52;;;;;;;7.37;3.45;;;;;;;-0.58;70.13;99832.28;1892857;76;20124;-69
2021/12/02 03:21:24;;;;;;;5.62;3.20;;;;;;;-0.59;70.01;99835.83;1892826;76;22128;-69
2021/12/02 03:24:14;;;;;;;6.08;3.00;;;;;;;-0.58;69.90;99838.80;1892663;76;22128;-69
2021/12/02 03:26:47;;;;;;;7.12;3.17;;;;;;;-0.57;69.74;99843.09;1874044;76;22178;-70
2021/12/02 03:29:39;;;;;;;5.42;3.15;;;;;;;-0.60;68.99;99850.28;1892801;76;22128;-70
2021/12/02 03:32:11;;;;;;;6.58;3.12;;;;;;;-0.66;68.87;99854.52;1892806;76;22582;-70
2021/12/02 03:34:43;;;;;;;5.87;3.20;;;;;;;-0.70;68.67;99856.49;1874032;76;22144;-70
2021/12/02 03:37:16;;;;;;;5.53;2.52;;;;;;;-0.73;68.29;99854.52;1874019;76;22590;-69
2021/12/02 03:40:09;;;;;;;4.35;2.50;;;;;;;-0.76;68.11;99859.43;1873968;76;22128;-70
2021/12/02 03:42:50;;;;;;;5.17;2.55;;;;;;;-0.80;67.59;99867.05;1874133;76;22137;-69
2021/12/02 03:45:23;;;;;;;6.95;3.08;;;;;;;-0.86;67.45;99866.94;1874023;76;22128;-70
2021/12/02 03:48:14;;;;;;;2.67;2.10;;;;;;;-0.89;67.41;99869.74;1874001;76;22121;-70
2021/12/02 03:50:46;;;;;;;5.20;2.08;;;;;;;-0.88;67.29;99875.33;1892825;76;22131;-70
2021/12/02 03:53:37;;;;;;;5.75;2.87;;;;;;;-0.86;67.27;99880.45;1873992;76;22581;-70
2021/12/02 03:56:08;;;;;;;5.10;2.58;;;;;;;-0.84;67.15;99883.36;1874000;76;22128;-69
2021/12/02 03:58:59;;;;;;;2.75;1.85;;;;;;;-0.84;67.00;99885.13;1873882;76;22142;-69
2021/12/02 04:01:31;;;;;;;5.72;2.35;;;;;;;-0.86;66.99;99884.36;1892817;76;22581;-69
2021/12/02 04:04:21;;;;;;;4.78;2.75;;;;;;;-0.90;66.96;99896.72;1892794;76;22124;-69
2021/12/02 04:06:53;;;;;;;4.35;2.40;;;;;;;-0.91;66.95;99905.48;1874043;76;22140;-70
2021/12/02 04:09:28;;;;;;;4.65;2.50;;;;;;;-0.90;66.91;99907.62;1874036;76;22154;-70
2021/12/02 04:12:04;;;;;;;4.75;2.30;;;;;;;-0.91;66.83;99905.94;1874035;76;22124;-69
2021/12/02 04:17:08;;;;;;;6.15;2.80;;;;;;;-0.95;66.65;99906.56;1874160;76;22157;-69
2021/12/02 04:19:40;;;;;;;3.85;2.20;;;;;;;-0.95;66.65;99900.52;1874027;76;22128;-69
2021/12/02 04:22:31;;;;;;;4.95;2.50;;;;;;;-0.98;66.49;99909.37;1874017;76;22136;-68
2021/12/02 04:25:05;;;;;;;6.05;2.65;;;;;;;-1.02;66.57;99914.84;1874136;76;22150;-70
2021/12/02 04:27:36;;;;;;;5.78;2.72;;;;;;;-1.08;66.64;99918.16;1892822;76;22157;-69
2021/12/02 04:30:11;;;;;;;4.72;2.83;;;;;;;-1.11;66.94;99926.14;1874043;76;22121;-67
2021/12/02 04:33:02;;;;;;;8.75;3.77;;;;;;;-1.10;67.14;99929.12;1892780;76;22603;-67
2021/12/02 04:35:34;;;;;;;7.28;3.70;;;;;;;-1.10;67.29;99935.64;1873916;76;22133;-70
2021/12/02 04:38:06;;;;;;;7.95;3.22;;;;;;;-1.11;67.62;99941.78;1871194;76;22591;-70
2021/12/02 04:40:57;;;;;;;7.25;3.80;;;;;;;-1.15;67.90;99948.08;1892784;76;22173;-68
2021/12/02 04:43:29;;;;;;;10.50;4.28;;;;;;;-1.20;68.30;99951.87;1892803;76;22602;-70
2021/12/02 04:46:01;;;;;;;11.38;4.25;;;;;;;-1.23;68.70;99958.07;1873915;76;22577;-70
2021/12/02 04:48:32;;;;;;;10.58;4.30;;;;;;;-1.24;69.12;99969.89;1874046;76;22124;-70
2021/12/02 04:51:04;;;;;;;13.20;4.92;;;;;;;-1.30;69.53;99968.00;1874014;76;22582;-70
2021/12/02 04:53:36;;;;;;;14.18;5.00;;;;;;;-1.32;69.87;99972.89;1874024;76;22146;-69
2021/12/02 04:56:07;;;;;;;13.10;5.35;;;;;;;-1.34;70.18;99988.63;1874015;76;22136;-69
2021/12/02 04:58:59;;;;;;;12.70;4.78;;;;;;;-1.34;70.39;99992.99;1873968;76;22145;-70
2021/12/02 05:01:30;;;;;;;18.17;8.73;;;;;;;-1.36;70.60;99990.48;1892822;76;22157;-69
2021/12/02 05:04:21;;;;;;;12.63;5.90;;;;;;;-1.32;70.77;99997.22;1874002;76;22192;-69
2021/12/02 05:06:53;;;;;;;10.48;5.08;;;;;;;-1.29;70.87;100000.94;1874019;76;22602;-69
2021/12/02 05:09:25;;;;;;;14.15;5.95;;;;;;;-1.24;71.02;100005.08;1874022;76;22137;-69
2021/12/02 05:12:04;;;;;;;14.50;5.92;;;;;;;-1.19;70.94;100010.88;1873044;76;22129;-69
2021/12/02 05:14:36;;;;;;;15.10;6.58;;;;;;;-1.10;70.93;100015.61;1892829;76;22120;-69
2021/12/02 05:17:27;;;;;;;20.80;9.30;;;;;;;-0.98;70.86;100019.34;1873994;76;22136;-69
2021/12/02 05:19:59;;;;;;;26.27;11.30;;;;;;;-0.95;70.61;100021.30;1892816;76;22116;-69
2021/12/02 05:22:32;;;;;;;22.02;9.53;;;;;;;-0.89;70.65;100028.81;1892786;76;22565;-69
2021/12/02 05:25:06;;;;;;;19.30;8.48;;;;;;;-0.81;70.75;100034.89;1892803;76;22153;-70
2021/12/02 05:27:57;;;;;;;19.20;7.83;;;;;;;-0.71;70.46;100049.12;1892734;76;22120;-67
2021/12/02 05:30:29;;;;;;;25.15;10.10;;;;;;;-0.62;70.43;100052.53;1873811;76;22148;-67
2021/12/02 05:33:19;;;;;;;22.42;8.63;;;;;;;-0.54;70.30;100049.05;1892658;76;22149;-67
2021/12/02 05:35:54;;;;;;;17.40;6.58;;;;;;;-0.46;70.04;100049.10;1892684;76;22132;-67
2021/12/02 05:38:45;;;;;;;19.10;8.50;;;;;;;-0.38;69.96;100037.75;1873851;76;22145;-67
2021/12/02 05:41:17;;;;;;;21.93;9.33;;;;;;;-0.36;69.64;100038.52;1873865;76;22182;-69
2021/12/02 05:43:49;;;;;;;27.62;11.78;;;;;;;-0.42;69.14;100049.31;1873730;76;22204;-66
2021/12/02 05:46:40;;;;;;;26.27;10.93;;;;;;;-0.47;69.09;100050.00;1873841;76;22160;-66
2021/12/02 05:49:12;;;;;;;22.52;10.13;;;;;;;-0.49;68.93;100061.84;1873819;76;22619;-67
2021/12/02 05:51:45;;;;;;;19.82;8.58;;;;;;;-0.55;68.80;100068.70;1873364;76;22217;-64
2021/12/02 05:54:36;;;;;;;21.90;9.45;;;;;;;-0.57;68.98;100064.86;1873232;76;22176;-64
2021/12/02 05:57:08;;;;;;;19.42;7.70;;;;;;;-0.57;69.05;100067.47;1873137;76;22197;-66
2021/12/02 05:59:40;;;;;;;16.10;7.28;;;;;;;-0.56;69.11;100074.39;1870810;76;22213;-66
2021/12/02 06:02:37;;;;;;;24.05;11.90;;;;;;;-0.50;68.95;100072.38;1873318;76;28366;-66
2021/12/02 06:05:09;;;;;;;16.80;6.65;;;;;;;-0.34;68.77;100086.25;1873391;76;22180;-66
2021/12/02 06:07:41;;;;;;;29.10;20.35;;;;;;;-0.23;68.36;100086.52;1873166;76;22633;-66
2021/12/02 06:10:13;;;;;;;29.70;17.45;;;;;;;-0.18;68.28;100088.40;1873381;76;22165;-67
2021/12/02 06:12:45;;;;;;;36.77;25.97;;;;;;;-0.09;68.08;100094.88;1873483;76;22209;-65
2021/12/02 06:15:17;;;;;;;21.93;11.78;;;;;;;-0.02;67.78;100104.04;1873440;76;22161;-68
2021/12/02 06:17:48;;;;;;;15.45;6.95;;;;;;;0.05;67.56;100107.13;1891496;76;22216;-68
2021/12/02 06:20:20;;;;;;;16.37;6.08;;;;;;;0.06;67.23;100103.62;1891929;76;22239;-65
2021/12/02 06:22:52;;;;;;;16.97;6.22;;;;;;;0.10;67.02;100103.83;1872888;76;22189;-66
2021/12/02 06:27:56;;;;;;;13.58;5.58;;;;;;;0.19;65.97;100111.14;1873401;76;22194;-67
2021/12/02 06:30:48;;;;;;;13.13;5.72;;;;;;;0.23;65.93;100124.38;1873391;76;22153;-66
2021/12/02 06:33:19;;;;;;;14.93;6.05;;;;;;;0.28;65.80;100143.23;1873468;76;22160;-67
2021/12/02 06:35:51;;;;;;;11.60;5.00;;;;;;;0.35;65.77;100144.59;1873271;76;22192;-67
2021/12/02 06:38:23;;;;;;;12.98;5.42;;;;;;;0.40;65.61;100136.02;1873092;76;22221;-67
2021/12/02 06:40:55;;;;;;;12.07;5.35;;;;;;;0.41;64.81;100136.86;1873370;76;22178;-67
2021/12/02 06:43:27;;;;;;;17.37;6.50;;;;;;;0.36;64.66;100139.73;1873306;76;22193;-67
2021/12/02 06:45:59;;;;;;;11.48;5.17;;;;;;;0.34;64.80;100147.30;1892243;76;22211;-67
2021/12/02 06:48:31;;;;;;;15.13;5.22;;;;;;;0.38;64.98;100154.88;1892358;76;22148;-67
2021/12/02 06:51:22;;;;;;;13.48;5.47;;;;;;;0.46;65.00;100157.88;1873446;76;22173;-67
2021/12/02 06:53:55;;;;;;;15.05;6.05;;;;;;;0.56;64.83;100167.80;1891934;76;22208;-66
2021/12/02 06:56:27;;;;;;;11.50;5.03;;;;;;;0.64;64.90;100169.52;1873366;76;22165;-66
2021/12/02 06:58:59;;;;;;;13.45;5.47;;;;;;;0.76;64.67;100172.27;1873234;76;22218;-67
2021/12/02 07:01:33;;;;;;;25.52;13.78;;;;;;;0.84;64.15;100187.95;1873163;76;22165;-68
2021/12/02 07:04:24;;;;;;;35.30;28.10;;;;;;;0.86;63.79;100188.27;1891887;76;22195;-66
2021/12/02 07:07:03;;;;;;;17.40;8.08;;;;;;;0.88;63.75;100184.23;1872478;76;22148;-64
2021/12/02 07:09:55;;;;;;;19.80;6.95;;;;;;;0.91;63.40;100188.83;1873048;76;22201;-64
2021/12/02 07:12:33;;;;;;;16.60;6.50;;;;;;;0.88;63.11;100183.77;1873061;76;22168;-66
2021/12/02 07:15:14;;;;;;;17.25;6.62;;;;;;;0.90;62.96;100188.93;1873181;76;22153;-66
2021/12/02 07:17:42;;;;;;;15.03;6.42;;;;;;;0.90;62.56;100188.46;1873565;76;22154;-66
2021/12/02 07:20:14;;;;;;;17.57;7.45;;;;;;;0.96;62.59;100193.80;1873299;76;22188;-64
2021/12/02 07:23:05;;;;;;;15.90;6.15;;;;;;;1.04;62.46;100199.89;1873720;76;22194;-66
2021/12/02 07:25:40;;;;;;;15.32;7.33;;;;;;;1.07;62.36;100214.08;1873441;76;22152;-65
2021/12/02 07:28:13;;;;;;;18.62;9.23;;;;;;;1.12;62.11;100204.18;1870749;76;22164;-66
2021/12/02 07:30:45;;;;;;;13.13;6.95;;;;;;;1.15;61.74;100202.70;1870824;76;22186;-65
2021/12/02 07:33:38;;;;;;;12.15;5.55;;;;;;;1.19;61.67;100203.73;1873249;76;22208;-67
2021/12/02 07:36:11;;;;;;;14.80;6.72;;;;;;;1.19;61.71;100205.05;1892122;76;22201;-68
2021/12/02 07:38:43;;;;;;;12.85;5.92;;;;;;;1.23;61.86;100207.02;1873276;76;22589;-65
2021/12/02 07:41:16;;;;;;;13.20;5.53;;;;;;;1.27;61.73;100205.44;1860698;76;22198;-65
2021/12/02 07:43:48;;;;;;;13.13;5.45;;;;;;;1.34;60.97;100209.83;1872823;76;22208;-66
2021/12/02 07:46:20;;;;;;;18.60;7.50;;;;;;;1.32;61.39;100209.09;1891261;76;22167;-62
2021/12/02 07:48:54;;;;;;;12.10;5.15;;;;;;;1.37;61.54;100221.90;1873232;76;22585;-70
2021/12/02 07:51:31;;;;;;;184.03;129.35;;;;;;;1.39;60.81;100224.78;1873466;76;22157;-72
2021/12/02 07:54:22;;;;;;;24.00;13.80;;;;;;;1.46;60.69;100225.27;1876212;76;28128;-64
2021/12/02 07:56:54;;;;;;;23.07;12.95;;;;;;;1.60;59.77;100227.02;1873439;76;22196;-64
2021/12/02 07:59:27;;;;;;;10.18;5.10;;;;;;;1.64;59.59;100228.52;1889605;76;22192;-71
2021/12/02 08:02:00;;;;;;;22.27;18.02;;;;;;;1.61;59.18;100232.66;1892136;76;22164;-66
2021/12/02 08:04:51;;;;;;;17.17;8.90;;;;;;;1.60;59.46;100232.27;1873412;76;22169;-66
2021/12/02 08:07:23;;;;;;;16.65;7.25;;;;;;;1.66;59.48;100230.60;1891973;76;22191;-65
2021/12/02 08:09:56;;;;;;;20.32;11.50;;;;;;;1.75;59.61;100228.73;1889145;76;22215;-67
2021/12/02 08:12:28;;;;;;;18.60;9.58;;;;;;;1.86;59.80;100228.06;1891993;76;22193;-69
2021/12/02 08:15:05;;;;;;;16.48;9.15;;;;;;;1.95;60.01;100230.95;1892126;76;22172;-67
2021/12/02 08:17:57;;;;;;;66.95;52.25;;;;;;;2.02;58.99;100234.88;1873283;76;22213;-69
2021/12/02 08:20:29;;;;;;;30.05;13.43;;;;;;;2.07;58.60;100221.94;1873256;76;22205;-68
2021/12/02 08:23:21;;;;;;;16.57;7.62;;;;;;;2.08;58.09;100202.20;1891929;76;22183;-67
2021/12/02 08:25:54;;;;;;;21.00;8.75;;;;;;;2.09;58.30;100204.36;1873228;76;22157;-62
2021/12/02 08:28:28;;;;;;;15.28;5.80;;;;;;;2.12;57.88;100202.39;1888112;76;22228;-63
2021/12/02 08:31:01;;;;;;;16.15;6.15;;;;;;;2.18;57.77;100205.08;1867066;76;22148;-64
2021/12/02 08:33:33;;;;;;;13.30;4.28;;;;;;;2.24;57.43;100208.61;1866107;76;22597;-65
2021/12/02 08:36:28;;;;;;;6.65;3.55;;;;;;;2.28;57.20;100208.80;1892369;76;22211;-62
2021/12/02 08:39:01;;;;;;;9.88;3.90;;;;;;;2.34;56.21;100203.63;1866750;76;22173;-64
2021/12/02 08:41:32;;;;;;;9.50;3.70;;;;;;;2.28;55.42;100206.17;1890032;76;22188;-59
2021/12/02 08:44:25;;;;;;;11.15;3.90;;;;;;;2.24;56.03;100198.12;1873148;76;22242;-58
2021/12/02 08:46:57;;;;;;;19.75;8.90;;;;;;;2.27;56.00;100195.33;1892132;76;22200;-58
2021/12/02 08:49:29;;;;;;;12.33;5.15;;;;;;;2.24;55.51;100194.20;1873271;76;22180;-60
2021/12/02 08:52:01;;;;;;;23.20;9.35;;;;;;;2.26;56.67;100186.63;1873515;76;22570;-63
2021/12/02 08:54:53;;;;;;;66.62;32.80;;;;;;;2.33;56.53;100194.92;1870624;76;22222;-67
2021/12/02 08:57:25;;;;;;;166.65;114.80;;;;;;;2.40;56.37;100196.66;1873654;76;22153;-64
2021/12/02 09:00:20;;;;;;;110.17;71.05;;;;;;;2.48;55.69;100213.58;1889854;76;22159;-63
2021/12/02 09:02:56;;;;;;;56.28;40.43;;;;;;;2.53;55.78;100211.97;1873361;76;22145;-63
2021/12/02 09:05:46;;;;;;;44.70;29.40;;;;;;;2.55;55.55;100221.44;1870997;76;22156;-67
2021/12/02 09:08:23;;;;;;;54.83;39.67;;;;;;;2.61;55.78;100211.48;1873572;76;22178;-66
2021/12/02 09:10:52;;;;;;;169.00;144.25;;;;;;;2.63;54.62;100211.73;1892236;76;22164;-66
2021/12/02 09:13:24;;;;;;;38.13;24.72;;;;;;;2.65;54.65;100211.66;1892055;76;22163;-67
2021/12/02 09:15:56;;;;;;;29.23;13.13;;;;;;;2.70;54.49;100201.70;1873723;76;22174;-65
2021/12/02 09:18:28;;;;;;;199.15;138.72;;;;;;;2.68;54.78;100211.00;1892285;76;22156;-65
2021/12/02 09:21:00;;;;;;;60.88;40.17;;;;;;;2.67;54.39;100222.41;1867858;76;22171;-67
2021/12/02 09:23:33;;;;;;;50.70;28.07;;;;;;;2.61;54.23;100227.22;1892353;76;22638;-65
2021/12/02 09:26:05;;;;;;;34.48;15.08;;;;;;;2.61;54.61;100224.60;1873276;76;22622;-61
2021/12/02 09:28:37;;;;;;;20.15;11.03;;;;;;;2.65;54.94;100233.48;1873531;76;22630;-64
2021/12/02 09:31:11;;;;;;;21.35;13.50;;;;;;;2.64;54.92;100234.43;1873006;76;22224;-68
2021/12/02 09:33:43;;;;;;;13.45;6.62;;;;;;;2.66;54.95;100239.56;1873214;76;22173;-62
2021/12/02 09:36:16;;;;;;;17.48;7.87;;;;;;;2.73;54.76;100231.65;1870477;76;22157;-63
2021/12/02 09:38:48;;;;;;;8.40;4.75;;;;;;;2.79;54.42;100222.09;1873241;76;22204;-67
2021/12/02 09:41:21;;;;;;;10.78;4.45;;;;;;;2.79;53.75;100219.47;1873017;76;22585;-67
2021/12/02 09:43:53;;;;;;;11.55;5.10;;;;;;;2.69;53.48;100226.27;1873383;76;22633;-67
2021/12/02 09:46:24;;;;;;;24.27;12.82;;;;;;;2.50;54.57;100219.59;1873592;76;22173;-65
2021/12/02 09:49:16;;;;;;;29.18;19.75;;;;;;;2.41;55.06;100221.97;1873331;76;22225;-65
2021/12/02 09:54:39;;;;;;;19.57;10.25;;;;;;;2.44;55.37;100212.09;1870533;76;22196;-66
2021/12/02 09:57:11;;;;;;;21.57;13.93;;;;;;;2.43;54.92;100209.58;1892406;76;22163;-61
2021/12/02 10:02:21;;;;;;;15.98;7.12;;;;;;;2.27;54.91;100205.80;1889645;76;22144;-66
2021/12/02 10:07:39;;;;;;;11.95;6.17;;;;;;;2.27;55.22;100198.78;1892339;76;22163;-68
2021/12/02 10:10:17;;;;;;;13.60;7.35;;;;;;;2.31;55.12;100194.19;1873403;76;22224;-63
2021/12/02 10:13:21;;;;;;;14.25;7.90;;;;;;;2.40;55.75;100190.11;1873479;76;22594;-62
2021/12/02 10:16:03;;;;;;;19.48;14.43;;;;;;;2.53;55.42;100202.33;1873403;76;22196;-64
2021/12/02 10:18:53;;;;;;;9.48;4.70;;;;;;;2.58;54.85;100194.62;1873624;76;22148;-62
2021/12/02 10:21:56;;;;;;;9.13;4.67;;;;;;;2.59;54.09;100189.75;1889970;76;22140;-62
2021/12/02 10:24:27;;;;;;;23.02;17.92;;;;;;;2.62;54.39;100197.43;1873652;76;22602;-62
2021/12/02 10:27:17;;;;;;;11.60;5.35;;;;;;;2.69;54.53;100193.47;1873795;76;22614;-64
2021/12/02 10:29:50;;;;;;;16.23;9.55;;;;;;;2.70;54.09;100180.25;1873868;76;22157;-65
2021/12/02 10:32:25;;;;;;;13.35;6.17;;;;;;;2.70;53.91;100188.12;1892469;76;22165;-63
2021/12/02 10:35:10;;;;;;;12.25;6.72;;;;;;;2.75;54.48;100193.06;1856465;76;27890;-65
2021/12/02 10:37:42;;;;;;;11.95;6.45;;;;;;;2.89;54.43;100202.16;1873714;76;22175;-68
2021/12/02 10:40:18;;;;;;;10.50;5.05;;;;;;;2.98;54.07;100203.34;1873829;76;22156;-66
2021/12/02 10:42:50;;;;;;;13.97;7.30;;;;;;;2.89;54.01;100213.97;1852436;76;28508;-68
2021/12/02 10:45:30;;;;;;;12.30;5.90;;;;;;;2.93;53.89;100211.52;1892243;76;22144;-66
2021/12/02 10:48:03;;;;;;;10.82;5.28;;;;;;;2.95;54.01;100216.18;1873799;76;22149;-68
2021/12/02 10:50:39;;;;;;;11.90;5.08;;;;;;;2.90;54.16;100206.46;1873574;76;22164;-68
2021/12/02 10:53:11;;;;;;;9.45;4.60;;;;;;;2.79;54.13;100200.63;1870994;76;22179;-62
2021/12/02 10:55:44;;;;;;;30.85;18.82;;;;;;;2.71;53.50;100206.00;1892446;76;22641;-61
2021/12/02 10:58:15;;;;;;;27.65;16.93;;;;;;;2.58;53.95;100211.20;1891687;76;22191;-65
2021/12/02 11:00:49;;;;;;;34.53;23.60;;;;;;;2.49;54.26;100213.98;1892024;76;22152;-65
2021/12/02 11:03:23;;;;;;;19.70;9.28;;;;;;;2.39;54.67;100211.55;1892180;76;22156;-66
2021/12/02 11:05:55;;;;;;;15.13;6.97;;;;;;;2.33;55.30;100202.78;1891971;76;22172;-60
2021/12/02 11:08:27;;;;;;;11.95;5.33;;;;;;;2.37;55.62;100199.50;1873396;76;22188;-63
2021/12/02 11:10:59;;;;;;;16.05;5.37;;;;;;;2.39;55.59;100210.72;1889465;76;22195;-61
2021/12/02 11:13:30;;;;;;;12.80;4.87;;;;;;;2.41;55.69;100212.31;1873378;76;22136;-64
2021/12/02 11:16:03;;;;;;;17.37;4.47;;;;;;;2.38;55.38;100213.81;1870732;76;22253;-59
2021/12/02 11:18:35;;;;;;;19.27;5.55;;;;;;;2.36;55.34;100200.45;1865148;76;22677;-67
2021/12/02 11:21:26;;;;;;;16.12;6.25;;;;;;;2.38;55.91;100203.33;1891819;76;22997;-64
2021/12/02 11:23:58;;;;;;;17.25;5.62;;;;;;;2.46;55.89;100198.91;1872974;76;22200;-60
2021/12/02 11:26:31;;;;;;;17.42;5.87;;;;;;;2.58;55.72;100201.19;1883497;76;22160;-60
2021/12/02 11:29:04;;;;;;;11.60;4.67;;;;;;;2.66;55.86;100190.56;1873163;76;22685;-59
2021/12/02 11:31:55;;;;;;;13.15;4.53;;;;;;;2.77;55.16;100188.06;1891652;76;22680;-58
2021/12/02 11:34:30;;;;;;;13.90;4.12;;;;;;;2.81;54.38;100182.15;1873590;76;22148;-59
2021/12/02 11:37:21;;;;;;;14.05;4.00;;;;;;;2.79;54.01;100169.15;1892253;76;22144;-60
2021/12/02 11:39:58;;;;;;;11.18;4.35;;;;;;;2.78;53.81;100166.64;1892216;76;22195;-58
2021/12/02 11:42:30;;;;;;;12.63;4.53;;;;;;;2.74;53.76;100171.71;1873409;76;22204;-62
2021/12/02 11:45:02;;;;;;;15.93;6.03;;;;;;;2.69;53.97;100172.02;1873340;76;22621;-62
2021/12/02 11:47:35;;;;;;;42.13;26.50;;;;;;;2.67;54.38;100173.88;1873217;76;22209;-60
2021/12/02 11:50:28;;;;;;;83.07;61.53;;;;;;;2.70;54.52;100171.55;1873403;76;22657;-63
2021/12/02 11:53:00;;;;;;;42.65;29.72;;;;;;;2.74;54.53;100167.78;1873613;76;22164;-63
2021/12/02 11:55:35;;;;;;;66.40;48.70;;;;;;;2.78;54.51;100162.70;1873577;76;22217;-63
2021/12/02 11:58:26;;;;;;;21.27;9.88;;;;;;;2.83;54.88;100162.39;1873375;76;22165;-62
2021/12/02 12:00:59;;;;;;;28.77;24.30;;;;;;;2.88;54.73;100165.07;1873474;76;22204;-63
2021/12/02 12:03:46;;;;;;;18.02;8.60;;;;;;;2.88;54.00;100169.00;1873474;76;22153;-63
2021/12/02 12:06:41;;;;;;;13.62;6.65;;;;;;;2.90;54.29;100172.36;1857343;76;27911;-64
2021/12/02 12:12:10;;;;;;;16.45;6.55;;;;;;;3.11;54.09;100169.25;1873330;76;22144;-64
2021/12/02 12:14:43;;;;;;;10.60;4.62;;;;;;;3.10;53.77;100165.75;1873577;76;22182;-62
2021/12/02 12:17:17;;;;;;;12.35;5.75;;;;;;;3.02;53.67;100172.02;1873293;76;22165;-64
2021/12/02 12:20:09;;;;;;;16.52;6.78;;;;;;;2.94;54.22;100167.27;1892214;76;22192;-65
2021/12/02 12:22:41;;;;;;;19.48;6.83;;;;;;;2.90;54.58;100156.61;1873394;76;22174;-66
2021/12/02 12:25:17;;;;;;;19.02;7.70;;;;;;;2.86;55.02;100165.63;1873373;76;22225;-64
2021/12/02 12:28:00;;;;;;;18.00;6.80;;;;;;;2.77;55.31;100159.69;1873554;76;22161;-63
2021/12/02 12:30:38;;;;;;;130.72;75.55;;;;;;;2.68;55.69;100168.16;1873364;76;22221;-60
2021/12/02 12:33:19;;;;;;;26.00;12.88;;;;;;;2.67;55.84;100165.17;1873082;76;22170;-61
2021/12/02 12:38:32;;;;;;;27.07;14.55;;;;;;;2.56;56.61;100156.24;1873588;76;22160;-62
2021/12/02 12:41:18;;;;;;;30.70;18.62;;;;;;;2.54;56.95;100156.83;1872878;76;22629;-64
2021/12/02 12:43:53;;;;;;;18.62;8.78;;;;;;;2.53;57.35;100159.53;1867821;76;20166;-64
2021/12/02 12:46:26;;;;;;;21.73;10.65;;;;;;;2.52;57.71;100153.45;1873417;76;22602;-62
2021/12/02 12:49:15;;;;;;;23.80;9.93;;;;;;;2.52;57.91;100161.79;1873510;76;22180;-61
2021/12/02 12:52:04;;;;;;;24.60;11.75;;;;;;;2.51;58.14;100154.88;1889642;76;22156;-61